ASW weather

Aswan International Airport
Aswan, Aswan Governorate, Egypt

Public forecast

Using degrees Celsius for public forecast. Weather courtesy of forecast.io.

METAR (pilot weather report)

Report is more than 2 hours old.

Retrieved 2019/04/21 05:00 UTC (3 hours ago):

HESN 210500Z 36008KT CAVOK 18/02 Q1016 NOSIG

TAF (pilot weather forecast)

Retrieved 2019/04/21 06:06 UTC (2 hours ago):

TAF HESN 210500Z 2106/2212 35014KT CAVOK